Hatley, WI (54440)

7:44 AM CST on December 22, 2014 (GMT -0600)
Knopf's House | Change Station
CLOSE
Current Station
Personal Weather Station
Location: Weston, WI
Elevation: 1214 ft
Nearby Weather Stations
Active Advisory: Winter Weather Advisory

Elev 1214 ft 44.91 °N, 89.55 °W | Updated 9 minutes ago

Overcast
Overcast
32.5 °F
Feels Like 32 °F
N
2.7
Wind Variable Wind from ESE

Today
High -- | Low -- °F
--% Chance of Precip.
Yesterday
High -- | Low -- °F
Precip. -- in
7:32 AM 4:19 PM
New Moon, 0% visible
Pressure 29.88 in
Visibility 5.0 miles
Clouds Overcast 800 ft
Windchill 32 °F
Dew Point 31 °F
Humidity 95%
Rainfall 0.00 in
Snow Depth Not available.
UV 0 out of 12
Pollen .10 out of 12
Air Quality Not available.
Flu Activity Not available.
METAR KAUW 221254Z AUTO 14008KT 5SM BR OVC008 01/M01 A2983 RMK AO2 SNE1157 SLP117 P0000 T00061011

More Conditions Fewer Conditions

Pressure 29.88 in
Visibility 5.0 miles
Clouds Overcast 800 ft
Windchill 32 °F
Dew Point 31 °F
Humidity 95%
Rainfall 0.00 in
Snow Depth Not available.
UV 0 out of 12
Pollen .10 out of 12
Air Quality Not available.
Flu Activity Not available.
METAR KAUW 221254Z AUTO 14008KT 5SM BR OVC008 01/M01 A2983 RMK AO2 SNE1157 SLP117 P0000 T00061011

More Conditions Fewer Conditions

10-Day Weather Forecast

Almanac

Astronomy

Dec. 22, 2014 Rise Set
Actual Time
Civil Twilight
Nautical Twilight
Astronomical Twilight
Moon
Length of Visible Light
Length of Day
Tomorrow will be .
, % of the Moon is Illuminated

Today's Extremes

State Highs State Lows

Community

WunderPhotos

Upload Photos

1,779,599 photos uploaded!

WunderBlogs® & News

Nearby

Air Quality

  Air Quality AQ Index Pollutant
Not available.

Snow Depth

Station Depth Elevation

Earthquake Activity

City Distance Mag. Time & Date
Minimum magnitude displayed is 2.5.

Coastal Water Temperatures

Place Temperature

Nearby Weather Stations